Ana Sayfa
METAR-TAF:

METAR-TAF

Havaalanları :

Lake Charles, Louisiana, Amerika Birleşik Devletleri

Enlem: 30-07-34N, Boylam: 093-13-24W, yükseklik: 5 m

Güncel hava durumu gözlemi

Rapor saat 15:53 UTC de 1 saat ve 3 dakika önce yapıldı.
Rüzgar güney/güneydoğudan 6 kt
Sıcaklık 9°C
Nem 61%
Basınç 1032 hPa
Görüş mesafesi: 16.1 km
11000 ft yükseklikte parçalı çok bulutlu

METAR: KLCH 221553Z 15006KT 10SM BKN110 09/02 A3048 RMK AO2 SLP329 T00890022

Saat: 10:56 (16:56 UTC)

Tahmin

Rapor saat 11:20 UTC de 5 saat ve 36 dakika önce yapıldı.
Ayın 22'si saat 12 UTC'den ayın 23'si saat 12 UTC'ye kadar geçerli Tahmin
Rüzgar değişken yönden 4 kt
Görüş mesafesi: 10 km
25000 ft yükseklikte parçalı bulutlu
Ayın 23'si saat 0800 UTC'den
Rüzgar değişken yönden 2 kt
Görüş mesafesi: 10 km
3000 ft yükseklikte parçalı bulutlu
25000 ft yükseklikte parçalı çok bulutlu

TAF: KLCH 221120Z 2212/2312 VRB04KT P6SM SCT250 FM230800 VRB02KT P6SM SCT030 BKN250

4.000'den fazla havaalanı için hava durumu gözlemleri ve tahminleri (METAR ve TAF raporları).

Kullanılabilir istasyonlar harita üzerinde sarı ve kırmızı noktalarla gösterilir.

İstasyonun adını görmek için fareyi noktanın üzerinde gezdirin.

Sonrasında hava gözlem ve tahminlerini görmek için tıklayın.

Haritayı değiştirmek için: yaklaştırmak için siyah artı işaretli yeşil düğmeye ve uzaklaştırmak için de eksi işaretli düğmeye hızla tıklayın; bitişik haritalar için yeşil okları kullanın.


METAR-TAF: